sensor_id;sensor_type;location;lat;lon;timestamp;P1;durP1;ratioP1;P2;durP2;ratioP2
54452;SDS011;40363;52.270;10.546;2022-09-09T00:00:17;4.22;;;2.20;;
54452;SDS011;40363;52.270;10.546;2022-09-09T00:02:49;2.80;;;1.58;;
54452;SDS011;40363;52.270;10.546;2022-09-09T00:05:26;4.43;;;2.42;;
54452;SDS011;40363;52.270;10.546;2022-09-09T00:08:01;2.47;;;1.52;;
54452;SDS011;40363;52.270;10.546;2022-09-09T00:10:31;1.98;;;1.60;;
54452;SDS011;40363;52.270;10.546;2022-09-09T00:13:02;3.45;;;2.22;;
54452;SDS011;40363;52.270;10.546;2022-09-09T00:15:42;3.03;;;1.73;;
54452;SDS011;40363;52.270;10.546;2022-09-09T00:18:21;3.75;;;1.67;;
54452;SDS011;40363;52.270;10.546;2022-09-09T00:20:54;2.50;;;1.75;;
54452;SDS011;40363;52.270;10.546;2022-09-09T00:23:32;1.73;;;1.52;;
54452;SDS011;40363;52.270;10.546;2022-09-09T00:26:06;2.80;;;1.80;;
54452;SDS011;40363;52.270;10.546;2022-09-09T00:28:41;3.80;;;1.70;;
54452;SDS011;40363;52.270;10.546;2022-09-09T00:31:09;3.53;;;2.28;;
54452;SDS011;40363;52.270;10.546;2022-09-09T00:33:39;4.15;;;1.38;;
54452;SDS011;40363;52.270;10.546;2022-09-09T00:36:09;2.47;;;1.50;;
54452;SDS011;40363;52.270;10.546;2022-09-09T00:38:42;1.63;;;1.15;;
54452;SDS011;40363;52.270;10.546;2022-09-09T00:41:14;2.80;;;1.60;;
54452;SDS011;40363;52.270;10.546;2022-09-09T00:43:46;3.30;;;1.25;;
54452;SDS011;40363;52.270;10.546;2022-09-09T00:46:33;3.05;;;1.30;;
54452;SDS011;40363;52.270;10.546;2022-09-09T00:49:15;2.05;;;1.00;;
54452;SDS011;40363;52.270;10.546;2022-09-09T00:51:52;1.55;;;1.05;;
54452;SDS011;40363;52.270;10.546;2022-09-09T00:54:34;3.10;;;1.20;;
54452;SDS011;40363;52.270;10.546;2022-09-09T00:57:13;1.20;;;0.73;;
54452;SDS011;40363;52.270;10.546;2022-09-09T00:59:56;1.17;;;0.85;;
54452;SDS011;40363;52.270;10.546;2022-09-09T01:02:31;0.88;;;0.65;;
54452;SDS011;40363;52.270;10.546;2022-09-09T01:05:06;1.73;;;0.73;;
54452;SDS011;40363;52.270;10.546;2022-09-09T01:07:38;2.83;;;1.15;;
54452;SDS011;40363;52.270;10.546;2022-09-09T01:10:14;3.95;;;1.10;;
54452;SDS011;40363;52.270;10.546;2022-09-09T01:12:51;2.13;;;0.63;;
54452;SDS011;40363;52.270;10.546;2022-09-09T01:15:20;3.38;;;0.82;;
54452;SDS011;40363;52.270;10.546;2022-09-09T01:17:52;4.00;;;0.95;;
54452;SDS011;40363;52.270;10.546;2022-09-09T01:20:24;3.30;;;0.93;;
54452;SDS011;40363;52.270;10.546;2022-09-09T01:26:20;2.08;;;0.85;;
54452;SDS011;40363;52.270;10.546;2022-09-09T01:28:51;3.15;;;1.20;;
54452;SDS011;40363;52.270;10.546;2022-09-09T01:31:20;1.73;;;0.93;;
54452;SDS011;40363;52.270;10.546;2022-09-09T01:33:49;1.25;;;0.82;;
54452;SDS011;40363;52.270;10.546;2022-09-09T01:36:19;3.85;;;1.00;;
54452;SDS011;40363;52.270;10.546;2022-09-09T01:38:52;1.98;;;0.80;;
54452;SDS011;40363;52.270;10.546;2022-09-09T01:41:20;2.42;;;0.88;;
54452;SDS011;40363;52.270;10.546;2022-09-09T01:43:47;1.80;;;0.90;;
54452;SDS011;40363;52.270;10.546;2022-09-09T01:46:16;1.42;;;0.90;;
54452;SDS011;40363;52.270;10.546;2022-09-09T01:48:47;3.80;;;1.10;;
54452;SDS011;40363;52.270;10.546;2022-09-09T01:51:14;1.95;;;0.82;;
54452;SDS011;40363;52.270;10.546;2022-09-09T01:53:41;2.08;;;1.15;;
54452;SDS011;40363;52.270;10.546;2022-09-09T01:56:13;2.85;;;0.90;;
54452;SDS011;40363;52.270;10.546;2022-09-09T01:58:54;2.08;;;0.95;;
54452;SDS011;40363;52.270;10.546;2022-09-09T02:01:34;2.55;;;0.98;;
54452;SDS011;40363;52.270;10.546;2022-09-09T02:04:08;2.75;;;1.08;;
54452;SDS011;40363;52.270;10.546;2022-09-09T02:06:44;1.30;;;0.88;;
54452;SDS011;40363;52.270;10.546;2022-09-09T02:09:14;1.92;;;0.98;;
54452;SDS011;40363;52.270;10.546;2022-09-09T02:11:45;3.55;;;0.93;;
54452;SDS011;40363;52.270;10.546;2022-09-09T02:14:18;2.63;;;1.30;;
54452;SDS011;40363;52.270;10.546;2022-09-09T02:16:50;1.85;;;0.98;;
54452;SDS011;40363;52.270;10.546;2022-09-09T02:19:22;4.85;;;1.20;;
54452;SDS011;40363;52.270;10.546;2022-09-09T02:21:52;3.17;;;0.75;;
54452;SDS011;40363;52.270;10.546;2022-09-09T02:24:21;2.65;;;1.20;;
54452;SDS011;40363;52.270;10.546;2022-09-09T02:26:49;3.83;;;1.15;;
54452;SDS011;40363;52.270;10.546;2022-09-09T02:29:22;2.22;;;0.88;;
54452;SDS011;40363;52.270;10.546;2022-09-09T02:31:52;3.83;;;1.17;;
54452;SDS011;40363;52.270;10.546;2022-09-09T02:34:21;1.40;;;0.80;;
54452;SDS011;40363;52.270;10.546;2022-09-09T02:36:49;1.77;;;0.73;;
54452;SDS011;40363;52.270;10.546;2022-09-09T02:39:19;3.75;;;0.95;;
54452;SDS011;40363;52.270;10.546;2022-09-09T02:41:45;2.35;;;1.15;;
54452;SDS011;40363;52.270;10.546;2022-09-09T02:44:13;2.22;;;0.80;;
54452;SDS011;40363;52.270;10.546;2022-09-09T02:49:44;2.65;;;1.08;;
54452;SDS011;40363;52.270;10.546;2022-09-09T02:52:22;1.70;;;0.73;;
54452;SDS011;40363;52.270;10.546;2022-09-09T02:57:28;3.50;;;1.13;;
54452;SDS011;40363;52.270;10.546;2022-09-09T02:59:58;2.22;;;1.00;;
54452;SDS011;40363;52.270;10.546;2022-09-09T03:02:27;1.38;;;0.70;;
54452;SDS011;40363;52.270;10.546;2022-09-09T03:04:53;1.98;;;1.10;;
54452;SDS011;40363;52.270;10.546;2022-09-09T03:07:20;4.30;;;1.10;;
54452;SDS011;40363;52.270;10.546;2022-09-09T03:09:47;1.58;;;0.95;;
54452;SDS011;40363;52.270;10.546;2022-09-09T03:12:14;3.88;;;1.30;;
54452;SDS011;40363;52.270;10.546;2022-09-09T03:14:41;1.80;;;1.10;;
54452;SDS011;40363;52.270;10.546;2022-09-09T03:17:09;3.33;;;1.48;;
54452;SDS011;40363;52.270;10.546;2022-09-09T03:19:37;2.50;;;1.10;;
54452;SDS011;40363;52.270;10.546;2022-09-09T03:22:04;2.47;;;1.30;;
54452;SDS011;40363;52.270;10.546;2022-09-09T03:24:30;2.85;;;1.17;;
54452;SDS011;40363;52.270;10.546;2022-09-09T03:26:57;4.70;;;1.50;;
54452;SDS011;40363;52.270;10.546;2022-09-09T03:29:23;2.83;;;1.15;;
54452;SDS011;40363;52.270;10.546;2022-09-09T03:31:50;5.22;;;1.63;;
54452;SDS011;40363;52.270;10.546;2022-09-09T03:34:17;5.72;;;1.58;;
54452;SDS011;40363;52.270;10.546;2022-09-09T03:36:44;2.22;;;1.10;;
54452;SDS011;40363;52.270;10.546;2022-09-09T03:39:13;1.33;;;0.90;;
54452;SDS011;40363;52.270;10.546;2022-09-09T03:41:40;4.00;;;1.50;;
54452;SDS011;40363;52.270;10.546;2022-09-09T03:44:07;2.80;;;1.40;;
54452;SDS011;40363;52.270;10.546;2022-09-09T03:46:33;1.65;;;1.20;;
54452;SDS011;40363;52.270;10.546;2022-09-09T03:49:00;1.70;;;1.08;;
54452;SDS011;40363;52.270;10.546;2022-09-09T03:51:27;5.57;;;1.42;;
54452;SDS011;40363;52.270;10.546;2022-09-09T03:53:55;4.45;;;1.23;;
54452;SDS011;40363;52.270;10.546;2022-09-09T03:56:23;1.50;;;1.10;;
54452;SDS011;40363;52.270;10.546;2022-09-09T03:58:50;3.75;;;1.65;;
54452;SDS011;40363;52.270;10.546;2022-09-09T04:01:16;2.40;;;1.73;;
54452;SDS011;40363;52.270;10.546;2022-09-09T04:03:43;2.60;;;1.50;;
54452;SDS011;40363;52.270;10.546;2022-09-09T04:06:11;3.80;;;1.67;;
54452;SDS011;40363;52.270;10.546;2022-09-09T04:08:39;3.33;;;1.38;;
54452;SDS011;40363;52.270;10.546;2022-09-09T04:11:08;3.63;;;1.45;;
54452;SDS011;40363;52.270;10.546;2022-09-09T04:13:35;3.90;;;1.58;;
54452;SDS011;40363;52.270;10.546;2022-09-09T04:16:03;3.08;;;1.65;;
54452;SDS011;40363;52.270;10.546;2022-09-09T04:18:30;4.50;;;1.38;;
54452;SDS011;40363;52.270;10.546;2022-09-09T04:20:58;4.25;;;1.60;;
54452;SDS011;40363;52.270;10.546;2022-09-09T04:23:25;2.17;;;1.40;;
54452;SDS011;40363;52.270;10.546;2022-09-09T04:25:54;6.25;;;2.03;;
54452;SDS011;40363;52.270;10.546;2022-09-09T04:28:23;2.72;;;1.42;;
54452;SDS011;40363;52.270;10.546;2022-09-09T04:30:51;4.22;;;1.83;;
54452;SDS011;40363;52.270;10.546;2022-09-09T04:33:18;2.65;;;1.38;;
54452;SDS011;40363;52.270;10.546;2022-09-09T04:35:46;1.98;;;1.33;;
54452;SDS011;40363;52.270;10.546;2022-09-09T04:38:14;5.25;;;1.77;;
54452;SDS011;40363;52.270;10.546;2022-09-09T04:40:42;3.17;;;1.38;;
54452;SDS011;40363;52.270;10.546;2022-09-09T04:43:09;2.70;;;1.55;;
54452;SDS011;40363;52.270;10.546;2022-09-09T04:45:37;4.43;;;1.27;;
54452;SDS011;40363;52.270;10.546;2022-09-09T04:48:05;5.25;;;1.65;;
54452;SDS011;40363;52.270;10.546;2022-09-09T04:50:32;3.60;;;1.45;;
54452;SDS011;40363;52.270;10.546;2022-09-09T04:52:59;3.08;;;1.63;;
54452;SDS011;40363;52.270;10.546;2022-09-09T04:55:26;5.22;;;2.60;;
54452;SDS011;40363;52.270;10.546;2022-09-09T04:57:53;2.05;;;1.50;;
54452;SDS011;40363;52.270;10.546;2022-09-09T05:00:20;4.30;;;1.58;;
54452;SDS011;40363;52.270;10.546;2022-09-09T05:02:48;3.05;;;1.30;;
54452;SDS011;40363;52.270;10.546;2022-09-09T05:05:15;4.97;;;1.65;;
54452;SDS011;40363;52.270;10.546;2022-09-09T05:07:41;3.47;;;1.50;;
54452;SDS011;40363;52.270;10.546;2022-09-09T05:10:10;4.38;;;1.75;;
54452;SDS011;40363;52.270;10.546;2022-09-09T05:12:39;4.60;;;1.75;;
54452;SDS011;40363;52.270;10.546;2022-09-09T05:15:06;4.78;;;2.53;;
54452;SDS011;40363;52.270;10.546;2022-09-09T05:17:34;3.17;;;1.75;;
54452;SDS011;40363;52.270;10.546;2022-09-09T05:20:02;3.80;;;1.80;;
54452;SDS011;40363;52.270;10.546;2022-09-09T05:22:30;3.20;;;1.58;;
54452;SDS011;40363;52.270;10.546;2022-09-09T05:24:56;5.43;;;1.85;;
54452;SDS011;40363;52.270;10.546;2022-09-09T05:27:23;3.25;;;1.60;;
54452;SDS011;40363;52.270;10.546;2022-09-09T05:29:50;2.65;;;1.52;;
54452;SDS011;40363;52.270;10.546;2022-09-09T05:32:18;4.20;;;1.70;;
54452;SDS011;40363;52.270;10.546;2022-09-09T05:34:44;6.45;;;1.48;;
54452;SDS011;40363;52.270;10.546;2022-09-09T05:37:13;3.30;;;1.63;;
54452;SDS011;40363;52.270;10.546;2022-09-09T05:39:39;2.83;;;1.48;;
54452;SDS011;40363;52.270;10.546;2022-09-09T05:42:06;3.70;;;1.40;;
54452;SDS011;40363;52.270;10.546;2022-09-09T05:44:33;2.53;;;1.20;;
54452;SDS011;40363;52.270;10.546;2022-09-09T05:47:00;3.25;;;1.27;;
54452;SDS011;40363;52.270;10.546;2022-09-09T05:49:26;5.43;;;1.25;;
54452;SDS011;40363;52.270;10.546;2022-09-09T05:51:53;4.72;;;1.60;;
54452;SDS011;40363;52.270;10.546;2022-09-09T05:54:21;4.45;;;1.50;;
54452;SDS011;40363;52.270;10.546;2022-09-09T05:56:48;4.75;;;1.40;;
54452;SDS011;40363;52.270;10.546;2022-09-09T05:59:17;3.28;;;1.63;;
54452;SDS011;40363;52.270;10.546;2022-09-09T06:01:44;3.35;;;1.77;;
54452;SDS011;40363;52.270;10.546;2022-09-09T06:04:11;3.72;;;1.88;;
54452;SDS011;40363;52.270;10.546;2022-09-09T06:06:37;4.75;;;1.40;;
54452;SDS011;40363;52.270;10.546;2022-09-09T06:09:05;2.70;;;1.58;;
54452;SDS011;40363;52.270;10.546;2022-09-09T06:11:36;2.65;;;1.48;;
54452;SDS011;40363;52.270;10.546;2022-09-09T06:14:04;1.83;;;1.52;;
54452;SDS011;40363;52.270;10.546;2022-09-09T06:16:31;3.42;;;1.40;;
54452;SDS011;40363;52.270;10.546;2022-09-09T06:19:03;4.47;;;1.30;;
54452;SDS011;40363;52.270;10.546;2022-09-09T06:21:30;3.40;;;1.20;;
54452;SDS011;40363;52.270;10.546;2022-09-09T06:23:58;3.58;;;1.17;;
54452;SDS011;40363;52.270;10.546;2022-09-09T06:26:26;3.40;;;1.20;;
54452;SDS011;40363;52.270;10.546;2022-09-09T06:28:55;3.40;;;1.48;;
54452;SDS011;40363;52.270;10.546;2022-09-09T06:31:34;3.78;;;1.27;;
54452;SDS011;40363;52.270;10.546;2022-09-09T06:34:03;4.10;;;1.25;;
54452;SDS011;40363;52.270;10.546;2022-09-09T06:36:32;4.80;;;1.50;;
54452;SDS011;40363;52.270;10.546;2022-09-09T06:39:00;5.95;;;1.15;;
54452;SDS011;40363;52.270;10.546;2022-09-09T06:41:27;3.80;;;1.13;;
54452;SDS011;40363;52.270;10.546;2022-09-09T06:43:57;2.72;;;1.15;;
54452;SDS011;40363;52.270;10.546;2022-09-09T06:49:27;4.97;;;1.42;;
54452;SDS011;40363;52.270;10.546;2022-09-09T06:51:56;4.18;;;1.50;;
54452;SDS011;40363;52.270;10.546;2022-09-09T06:54:23;5.05;;;1.20;;
54452;SDS011;40363;52.270;10.546;2022-09-09T06:56:51;3.28;;;1.52;;
54452;SDS011;40363;52.270;10.546;2022-09-09T06:59:19;3.80;;;1.30;;
54452;SDS011;40363;52.270;10.546;2022-09-09T07:01:49;2.13;;;1.33;;
54452;SDS011;40363;52.270;10.546;2022-09-09T07:04:17;5.95;;;1.58;;
54452;SDS011;40363;52.270;10.546;2022-09-09T07:06:44;1.98;;;1.20;;
54452;SDS011;40363;52.270;10.546;2022-09-09T07:09:14;3.90;;;1.20;;
54452;SDS011;40363;52.270;10.546;2022-09-09T07:11:42;3.60;;;1.23;;
54452;SDS011;40363;52.270;10.546;2022-09-09T07:14:12;2.90;;;1.20;;
54452;SDS011;40363;52.270;10.546;2022-09-09T07:16:41;3.13;;;1.00;;
54452;SDS011;40363;52.270;10.546;2022-09-09T07:19:07;2.25;;;0.88;;
54452;SDS011;40363;52.270;10.546;2022-09-09T07:21:37;2.30;;;0.80;;
54452;SDS011;40363;52.270;10.546;2022-09-09T07:24:05;2.65;;;0.80;;
54452;SDS011;40363;52.270;10.546;2022-09-09T07:26:35;2.60;;;0.95;;
54452;SDS011;40363;52.270;10.546;2022-09-09T07:29:02;2.63;;;1.05;;
54452;SDS011;40363;52.270;10.546;2022-09-09T07:31:40;3.13;;;0.93;;
54452;SDS011;40363;52.270;10.546;2022-09-09T07:34:11;2.72;;;0.98;;
54452;SDS011;40363;52.270;10.546;2022-09-09T07:36:39;3.50;;;1.00;;
54452;SDS011;40363;52.270;10.546;2022-09-09T07:39:07;1.45;;;0.75;;
54452;SDS011;40363;52.270;10.546;2022-09-09T07:41:41;2.35;;;0.75;;
54452;SDS011;40363;52.270;10.546;2022-09-09T07:44:16;2.63;;;0.75;;
54452;SDS011;40363;52.270;10.546;2022-09-09T07:46:47;2.72;;;0.85;;
54452;SDS011;40363;52.270;10.546;2022-09-09T07:49:14;4.63;;;1.17;;
54452;SDS011;40363;52.270;10.546;2022-09-09T07:51:43;3.55;;;0.85;;
54452;SDS011;40363;52.270;10.546;2022-09-09T07:54:14;4.95;;;0.77;;
54452;SDS011;40363;52.270;10.546;2022-09-09T07:56:44;2.03;;;0.95;;
54452;SDS011;40363;52.270;10.546;2022-09-09T07:59:11;1.40;;;0.95;;
54452;SDS011;40363;52.270;10.546;2022-09-09T08:01:39;1.52;;;0.73;;
54452;SDS011;40363;52.270;10.546;2022-09-09T08:04:10;3.05;;;0.88;;
54452;SDS011;40363;52.270;10.546;2022-09-09T08:06:40;2.35;;;0.98;;
54452;SDS011;40363;52.270;10.546;2022-09-09T08:09:10;2.90;;;1.20;;
54452;SDS011;40363;52.270;10.546;2022-09-09T08:11:37;3.88;;;1.33;;
54452;SDS011;40363;52.270;10.546;2022-09-09T08:14:04;3.70;;;1.33;;
54452;SDS011;40363;52.270;10.546;2022-09-09T08:16:33;4.50;;;1.08;;
54452;SDS011;40363;52.270;10.546;2022-09-09T08:19:01;7.32;;;1.40;;
54452;SDS011;40363;52.270;10.546;2022-09-09T08:21:30;3.95;;;1.05;;
54452;SDS011;40363;52.270;10.546;2022-09-09T08:23:58;1.88;;;0.93;;
54452;SDS011;40363;52.270;10.546;2022-09-09T08:26:26;6.00;;;1.00;;
54452;SDS011;40363;52.270;10.546;2022-09-09T08:28:57;4.15;;;0.90;;
54452;SDS011;40363;52.270;10.546;2022-09-09T08:31:25;2.78;;;1.10;;
54452;SDS011;40363;52.270;10.546;2022-09-09T08:33:54;4.22;;;0.80;;
54452;SDS011;40363;52.270;10.546;2022-09-09T08:36:22;2.05;;;0.75;;
54452;SDS011;40363;52.270;10.546;2022-09-09T08:38:53;2.40;;;0.80;;
54452;SDS011;40363;52.270;10.546;2022-09-09T08:45:06;2.10;;;0.80;;
54452;SDS011;40363;52.270;10.546;2022-09-09T08:47:46;2.50;;;1.20;;
54452;SDS011;40363;52.270;10.546;2022-09-09T08:50:21;3.13;;;1.02;;
54452;SDS011;40363;52.270;10.546;2022-09-09T08:52:54;3.60;;;1.70;;
54452;SDS011;40363;52.270;10.546;2022-09-09T08:58:02;3.05;;;0.93;;
54452;SDS011;40363;52.270;10.546;2022-09-09T09:00:38;2.20;;;0.70;;
54452;SDS011;40363;52.270;10.546;2022-09-09T09:03:13;4.25;;;1.20;;
54452;SDS011;40363;52.270;10.546;2022-09-09T09:05:51;3.28;;;0.70;;
54452;SDS011;40363;52.270;10.546;2022-09-09T09:08:25;2.95;;;0.75;;
54452;SDS011;40363;52.270;10.546;2022-09-09T09:11:00;3.88;;;0.90;;
54452;SDS011;40363;52.270;10.546;2022-09-09T09:13:30;3.80;;;0.90;;
54452;SDS011;40363;52.270;10.546;2022-09-09T09:16:02;4.38;;;1.25;;
54452;SDS011;40363;52.270;10.546;2022-09-09T09:18:36;2.90;;;1.13;;
54452;SDS011;40363;52.270;10.546;2022-09-09T09:21:03;1.90;;;0.82;;
54452;SDS011;40363;52.270;10.546;2022-09-09T09:23:39;7.95;;;1.60;;
54452;SDS011;40363;52.270;10.546;2022-09-09T09:26:12;5.05;;;1.73;;
54452;SDS011;40363;52.270;10.546;2022-09-09T09:28:38;3.13;;;1.30;;
54452;SDS011;40363;52.270;10.546;2022-09-09T09:31:08;3.60;;;1.10;;
54452;SDS011;40363;52.270;10.546;2022-09-09T09:33:38;3.33;;;1.25;;
54452;SDS011;40363;52.270;10.546;2022-09-09T09:36:14;4.97;;;1.02;;
54452;SDS011;40363;52.270;10.546;2022-09-09T09:38:52;3.25;;;1.00;;
54452;SDS011;40363;52.270;10.546;2022-09-09T09:41:32;4.40;;;1.45;;
54452;SDS011;40363;52.270;10.546;2022-09-09T09:44:01;2.95;;;1.13;;
54452;SDS011;40363;52.270;10.546;2022-09-09T09:46:29;4.43;;;1.33;;
54452;SDS011;40363;52.270;10.546;2022-09-09T09:48:58;2.55;;;0.88;;
54452;SDS011;40363;52.270;10.546;2022-09-09T09:51:26;5.10;;;1.17;;
54452;SDS011;40363;52.270;10.546;2022-09-09T09:53:54;3.70;;;1.15;;
54452;SDS011;40363;52.270;10.546;2022-09-09T09:56:39;4.68;;;1.13;;
54452;SDS011;40363;52.270;10.546;2022-09-09T09:59:18;2.63;;;1.08;;
54452;SDS011;40363;52.270;10.546;2022-09-09T10:01:50;3.25;;;1.48;;
54452;SDS011;40363;52.270;10.546;2022-09-09T10:04:20;2.10;;;1.25;;
54452;SDS011;40363;52.270;10.546;2022-09-09T10:06:54;2.88;;;1.10;;
54452;SDS011;40363;52.270;10.546;2022-09-09T10:09:28;4.45;;;1.45;;
54452;SDS011;40363;52.270;10.546;2022-09-09T10:12:00;3.88;;;1.50;;
54452;SDS011;40363;52.270;10.546;2022-09-09T10:14:39;7.28;;;1.35;;
54452;SDS011;40363;52.270;10.546;2022-09-09T10:17:16;3.08;;;1.13;;
54452;SDS011;40363;52.270;10.546;2022-09-09T10:19:55;3.95;;;1.00;;
54452;SDS011;40363;52.270;10.546;2022-09-09T10:22:37;4.65;;;1.33;;
54452;SDS011;40363;52.270;10.546;2022-09-09T10:28:15;3.95;;;1.60;;
54452;SDS011;40363;52.270;10.546;2022-09-09T10:31:01;2.72;;;1.20;;
54452;SDS011;40363;52.270;10.546;2022-09-09T10:33:41;5.15;;;1.23;;
54452;SDS011;40363;52.270;10.546;2022-09-09T10:36:17;2.05;;;0.98;;
54452;SDS011;40363;52.270;10.546;2022-09-09T10:38:47;6.15;;;1.25;;
54452;SDS011;40363;52.270;10.546;2022-09-09T10:41:19;3.00;;;0.80;;
54452;SDS011;40363;52.270;10.546;2022-09-09T10:43:56;5.68;;;1.20;;
54452;SDS011;40363;52.270;10.546;2022-09-09T10:46:46;4.65;;;1.13;;
54452;SDS011;40363;52.270;10.546;2022-09-09T10:49:30;3.92;;;0.88;;
54452;SDS011;40363;52.270;10.546;2022-09-09T10:52:13;4.03;;;1.05;;
54452;SDS011;40363;52.270;10.546;2022-09-09T10:54:49;3.45;;;1.08;;
54452;SDS011;40363;52.270;10.546;2022-09-09T10:57:25;4.75;;;1.23;;
54452;SDS011;40363;52.270;10.546;2022-09-09T11:00:00;6.28;;;1.52;;
54452;SDS011;40363;52.270;10.546;2022-09-09T11:02:31;7.25;;;1.00;;
54452;SDS011;40363;52.270;10.546;2022-09-09T11:05:00;3.28;;;0.80;;
54452;SDS011;40363;52.270;10.546;2022-09-09T11:07:33;2.67;;;0.88;;
54452;SDS011;40363;52.270;10.546;2022-09-09T11:10:04;5.07;;;1.23;;
54452;SDS011;40363;52.270;10.546;2022-09-09T11:12:39;4.40;;;1.48;;
54452;SDS011;40363;52.270;10.546;2022-09-09T11:15:16;6.63;;;2.90;;
54452;SDS011;40363;52.270;10.546;2022-09-09T11:17:48;7.20;;;3.50;;
54452;SDS011;40363;52.270;10.546;2022-09-09T11:20:17;4.63;;;1.73;;
54452;SDS011;40363;52.270;10.546;2022-09-09T11:22:45;3.92;;;1.50;;
54452;SDS011;40363;52.270;10.546;2022-09-09T11:25:18;5.00;;;1.70;;
54452;SDS011;40363;52.270;10.546;2022-09-09T11:27:53;4.47;;;1.17;;
54452;SDS011;40363;52.270;10.546;2022-09-09T11:30:32;4.18;;;1.02;;
54452;SDS011;40363;52.270;10.546;2022-09-09T11:33:23;2.55;;;1.10;;
54452;SDS011;40363;52.270;10.546;2022-09-09T11:36:11;5.45;;;1.40;;
54452;SDS011;40363;52.270;10.546;2022-09-09T11:38:56;3.50;;;1.15;;
54452;SDS011;40363;52.270;10.546;2022-09-09T11:41:33;3.92;;;1.27;;
54452;SDS011;40363;52.270;10.546;2022-09-09T11:44:08;3.65;;;1.10;;
54452;SDS011;40363;52.270;10.546;2022-09-09T11:46:39;3.38;;;1.30;;
54452;SDS011;40363;52.270;10.546;2022-09-09T11:49:23;3.53;;;1.23;;
54452;SDS011;40363;52.270;10.546;2022-09-09T11:51:53;1.98;;;0.80;;
54452;SDS011;40363;52.270;10.546;2022-09-09T11:54:28;2.63;;;0.70;;
54452;SDS011;40363;52.270;10.546;2022-09-09T11:56:56;3.17;;;0.90;;
54452;SDS011;40363;52.270;10.546;2022-09-09T11:59:23;1.77;;;0.68;;
54452;SDS011;40363;52.270;10.546;2022-09-09T12:01:55;1.05;;;0.63;;
54452;SDS011;40363;52.270;10.546;2022-09-09T12:04:28;2.70;;;0.70;;
54452;SDS011;40363;52.270;10.546;2022-09-09T12:06:59;1.95;;;0.60;;
54452;SDS011;40363;52.270;10.546;2022-09-09T12:09:41;2.55;;;0.90;;
54452;SDS011;40363;52.270;10.546;2022-09-09T12:12:26;2.95;;;0.95;;
54452;SDS011;40363;52.270;10.546;2022-09-09T12:15:15;2.08;;;1.20;;
54452;SDS011;40363;52.270;10.546;2022-09-09T12:17:49;4.78;;;1.73;;
54452;SDS011;40363;52.270;10.546;2022-09-09T12:20:17;2.70;;;1.02;;
54452;SDS011;40363;52.270;10.546;2022-09-09T12:22:49;2.97;;;1.13;;
54452;SDS011;40363;52.270;10.546;2022-09-09T12:25:26;2.15;;;0.70;;
54452;SDS011;40363;52.270;10.546;2022-09-09T12:28:02;3.42;;;0.80;;
54452;SDS011;40363;52.270;10.546;2022-09-09T12:30:35;7.68;;;1.00;;
54452;SDS011;40363;52.270;10.546;2022-09-09T12:33:13;3.47;;;1.08;;
54452;SDS011;40363;52.270;10.546;2022-09-09T12:35:44;2.13;;;0.77;;
54452;SDS011;40363;52.270;10.546;2022-09-09T12:38:17;4.55;;;1.17;;
54452;SDS011;40363;52.270;10.546;2022-09-09T12:40:54;1.38;;;0.70;;
54452;SDS011;40363;52.270;10.546;2022-09-09T12:43:23;4.85;;;0.90;;
54452;SDS011;40363;52.270;10.546;2022-09-09T12:45:51;1.58;;;0.70;;
54452;SDS011;40363;52.270;10.546;2022-09-09T12:48:25;5.47;;;1.05;;
54452;SDS011;40363;52.270;10.546;2022-09-09T12:50:57;4.72;;;0.95;;
54452;SDS011;40363;52.270;10.546;2022-09-09T12:53:26;4.28;;;0.73;;
54452;SDS011;40363;52.270;10.546;2022-09-09T12:55:56;3.40;;;1.00;;
54452;SDS011;40363;52.270;10.546;2022-09-09T12:58:24;3.67;;;0.90;;
54452;SDS011;40363;52.270;10.546;2022-09-09T13:00:54;3.45;;;0.80;;
54452;SDS011;40363;52.270;10.546;2022-09-09T13:03:22;2.97;;;1.05;;
54452;SDS011;40363;52.270;10.546;2022-09-09T13:05:51;2.60;;;0.90;;
54452;SDS011;40363;52.270;10.546;2022-09-09T13:08:19;4.30;;;0.88;;
54452;SDS011;40363;52.270;10.546;2022-09-09T13:10:47;2.92;;;0.63;;
54452;SDS011;40363;52.270;10.546;2022-09-09T13:13:20;1.48;;;0.60;;
54452;SDS011;40363;52.270;10.546;2022-09-09T13:15:49;6.57;;;0.80;;
54452;SDS011;40363;52.270;10.546;2022-09-09T13:18:19;5.28;;;0.95;;
54452;SDS011;40363;52.270;10.546;2022-09-09T13:20:48;5.20;;;0.60;;
54452;SDS011;40363;52.270;10.546;2022-09-09T13:23:18;3.38;;;0.80;;
54452;SDS011;40363;52.270;10.546;2022-09-09T13:25:52;6.78;;;0.85;;
54452;SDS011;40363;52.270;10.546;2022-09-09T13:28:21;1.33;;;0.40;;
54452;SDS011;40363;52.270;10.546;2022-09-09T13:30:55;2.42;;;0.57;;
54452;SDS011;40363;52.270;10.546;2022-09-09T13:33:29;2.10;;;0.80;;
54452;SDS011;40363;52.270;10.546;2022-09-09T13:36:00;2.40;;;0.60;;
54452;SDS011;40363;52.270;10.546;2022-09-09T13:38:30;2.83;;;1.00;;
54452;SDS011;40363;52.270;10.546;2022-09-09T13:40:59;2.67;;;0.77;;
54452;SDS011;40363;52.270;10.546;2022-09-09T13:43:28;1.17;;;0.73;;
54452;SDS011;40363;52.270;10.546;2022-09-09T13:45:57;3.22;;;1.05;;
54452;SDS011;40363;52.270;10.546;2022-09-09T13:48:26;3.72;;;0.95;;
54452;SDS011;40363;52.270;10.546;2022-09-09T13:50:55;4.88;;;0.77;;
54452;SDS011;40363;52.270;10.546;2022-09-09T13:53:24;6.90;;;1.23;;
54452;SDS011;40363;52.270;10.546;2022-09-09T13:55:51;2.63;;;1.38;;
54452;SDS011;40363;52.270;10.546;2022-09-09T13:58:18;3.22;;;1.05;;
54452;SDS011;40363;52.270;10.546;2022-09-09T14:00:45;1.52;;;0.60;;
54452;SDS011;40363;52.270;10.546;2022-09-09T14:03:12;2.72;;;0.95;;
54452;SDS011;40363;52.270;10.546;2022-09-09T14:05:39;1.02;;;0.60;;
54452;SDS011;40363;52.270;10.546;2022-09-09T14:08:07;1.73;;;0.73;;
54452;SDS011;40363;52.270;10.546;2022-09-09T14:10:42;2.23;;;0.57;;
54452;SDS011;40363;52.270;10.546;2022-09-09T14:13:09;1.70;;;0.70;;
54452;SDS011;40363;52.270;10.546;2022-09-09T14:15:35;1.67;;;0.70;;
54452;SDS011;40363;52.270;10.546;2022-09-09T14:18:02;2.47;;;0.50;;
54452;SDS011;40363;52.270;10.546;2022-09-09T14:20:29;1.67;;;0.68;;
54452;SDS011;40363;52.270;10.546;2022-09-09T14:22:56;1.90;;;0.73;;
54452;SDS011;40363;52.270;10.546;2022-09-09T14:25:23;2.42;;;0.50;;
54452;SDS011;40363;52.270;10.546;2022-09-09T14:27:51;2.38;;;0.50;;
54452;SDS011;40363;52.270;10.546;2022-09-09T14:30:18;4.15;;;0.73;;
54452;SDS011;40363;52.270;10.546;2022-09-09T14:32:44;1.30;;;0.70;;
54452;SDS011;40363;52.270;10.546;2022-09-09T14:35:11;3.42;;;0.68;;
54452;SDS011;40363;52.270;10.546;2022-09-09T14:37:38;1.38;;;0.55;;
54452;SDS011;40363;52.270;10.546;2022-09-09T14:40:05;3.78;;;0.80;;
54452;SDS011;40363;52.270;10.546;2022-09-09T14:42:32;2.20;;;0.60;;
54452;SDS011;40363;52.270;10.546;2022-09-09T14:45:00;6.50;;;2.40;;
54452;SDS011;40363;52.270;10.546;2022-09-09T14:47:27;2.03;;;1.00;;
54452;SDS011;40363;52.270;10.546;2022-09-09T14:49:55;3.88;;;1.10;;
54452;SDS011;40363;52.270;10.546;2022-09-09T14:52:21;4.90;;;0.95;;
54452;SDS011;40363;52.270;10.546;2022-09-09T14:54:48;2.17;;;0.60;;
54452;SDS011;40363;52.270;10.546;2022-09-09T14:57:15;4.57;;;1.02;;
54452;SDS011;40363;52.270;10.546;2022-09-09T14:59:41;3.00;;;0.80;;
54452;SDS011;40363;52.270;10.546;2022-09-09T15:02:09;2.80;;;1.05;;
54452;SDS011;40363;52.270;10.546;2022-09-09T15:04:38;2.35;;;1.00;;
54452;SDS011;40363;52.270;10.546;2022-09-09T15:07:05;2.00;;;0.90;;
54452;SDS011;40363;52.270;10.546;2022-09-09T15:09:32;4.38;;;1.52;;
54452;SDS011;40363;52.270;10.546;2022-09-09T15:11:58;3.03;;;0.73;;
54452;SDS011;40363;52.270;10.546;2022-09-09T15:14:25;2.53;;;0.75;;